createdAt,value
2023-05-21T00:01:54.954Z,15.80
2023-05-21T00:03:57.400Z,15.80
2023-05-21T00:06:01.617Z,15.70
2023-05-21T00:08:03.702Z,15.70
2023-05-21T00:10:06.518Z,15.70
2023-05-21T00:12:09.411Z,15.70
2023-05-21T00:14:11.227Z,15.60
2023-05-21T00:16:13.060Z,15.60
2023-05-21T00:18:14.896Z,15.60
2023-05-21T00:20:17.388Z,15.60
2023-05-21T00:22:20.158Z,15.60
2023-05-21T00:24:21.850Z,15.60
2023-05-21T00:26:26.840Z,15.50
2023-05-21T00:28:28.586Z,15.50
2023-05-21T00:30:30.536Z,15.50
2023-05-21T00:32:32.361Z,15.50
2023-05-21T00:34:34.192Z,15.50
2023-05-21T00:36:35.961Z,15.50
2023-05-21T00:38:38.171Z,15.40
2023-05-21T00:40:41.351Z,15.40
2023-05-21T00:42:46.504Z,15.40
2023-05-21T00:44:48.335Z,15.40
2023-05-21T00:46:53.743Z,15.40
2023-05-21T00:48:58.125Z,15.30
2023-05-21T00:51:00.192Z,15.30
2023-05-21T00:53:02.223Z,15.30
2023-05-21T00:55:04.300Z,15.30
2023-05-21T00:57:06.754Z,15.30
2023-05-21T00:59:08.755Z,15.30
2023-05-21T01:01:13.848Z,15.20
2023-05-21T01:03:16.538Z,15.20
2023-05-21T01:05:19.170Z,15.20
2023-05-21T01:07:21.948Z,15.20
2023-05-21T01:09:23.635Z,15.20
2023-05-21T01:11:39.476Z,15.10
2023-05-21T01:13:42.027Z,15.10
2023-05-21T01:15:44.974Z,15.10
2023-05-21T01:17:48.797Z,15.10
2023-05-21T01:19:52.705Z,15.10
2023-05-21T01:22:01.186Z,15.10
2023-05-21T01:24:07.581Z,15.10
2023-05-21T01:26:12.932Z,15.00
2023-05-21T01:28:15.089Z,15.00
2023-05-21T01:30:19.230Z,15.00
2023-05-21T01:32:31.339Z,15.00
2023-05-21T01:34:42.073Z,15.00
2023-05-21T01:36:49.433Z,14.90
2023-05-21T01:39:15.666Z,15.00
2023-05-21T01:41:18.980Z,15.00
2023-05-21T01:43:22.467Z,14.90
2023-05-21T01:45:25.452Z,14.90
2023-05-21T01:47:31.425Z,14.90
2023-05-21T01:49:33.485Z,14.90
2023-05-21T01:51:36.107Z,14.90
2023-05-21T01:53:40.763Z,14.90
2023-05-21T01:55:43.712Z,14.80
2023-05-21T01:57:45.609Z,14.80
2023-05-21T01:59:47.908Z,14.80
2023-05-21T02:01:49.815Z,14.70
2023-05-21T02:03:51.782Z,14.70
2023-05-21T02:05:55.714Z,14.70
2023-05-21T02:08:00.170Z,14.70
2023-05-21T02:10:02.356Z,14.70
2023-05-21T02:12:04.466Z,14.60
2023-05-21T02:14:07.982Z,14.60
2023-05-21T02:16:14.667Z,14.60
2023-05-21T02:18:16.958Z,14.60
2023-05-21T02:20:19.505Z,14.50
2023-05-21T02:22:21.250Z,14.50
2023-05-21T02:24:24.462Z,14.50
2023-05-21T02:26:27.173Z,14.40
2023-05-21T02:28:29.803Z,14.40
2023-05-21T02:30:31.571Z,14.40
2023-05-21T02:32:34.074Z,14.40
2023-05-21T02:34:37.369Z,14.40
2023-05-21T02:36:41.538Z,14.40
2023-05-21T02:38:43.746Z,14.40
2023-05-21T02:40:46.441Z,14.30
2023-05-21T02:42:48.211Z,14.30
2023-05-21T02:44:51.299Z,14.30
2023-05-21T02:46:53.091Z,14.30
2023-05-21T02:48:54.871Z,14.30
2023-05-21T02:50:56.684Z,14.20
2023-05-21T02:52:59.829Z,14.20
2023-05-21T02:55:01.737Z,14.20
2023-05-21T02:57:03.651Z,14.10
2023-05-21T02:59:05.536Z,14.10
2023-05-21T03:01:07.378Z,14.10
2023-05-21T03:03:09.231Z,14.10
2023-05-21T03:05:11.180Z,14.00
2023-05-21T03:07:14.503Z,14.10
2023-05-21T03:09:16.812Z,14.00
2023-05-21T03:11:20.091Z,14.00
2023-05-21T03:13:22.311Z,13.90
2023-05-21T03:15:24.359Z,13.90
2023-05-21T03:17:27.816Z,13.90
2023-05-21T03:19:31.933Z,13.90
2023-05-21T03:21:34.023Z,13.90
2023-05-21T03:23:35.833Z,13.80
2023-05-21T03:25:37.759Z,13.80
2023-05-21T03:27:40.240Z,13.80
2023-05-21T03:29:43.296Z,13.80
2023-05-21T03:31:45.262Z,13.70
2023-05-21T03:33:47.154Z,13.70
2023-05-21T03:35:49.128Z,13.70
2023-05-21T03:37:51.194Z,13.70
2023-05-21T03:39:52.989Z,13.70
2023-05-21T03:41:54.843Z,13.60
2023-05-21T03:43:56.615Z,13.60
2023-05-21T03:45:58.461Z,13.60
2023-05-21T03:48:01.952Z,13.60
2023-05-21T03:50:06.052Z,13.60
2023-05-21T03:52:07.952Z,13.60
2023-05-21T03:54:09.935Z,13.50
2023-05-21T03:56:12.158Z,13.50
2023-05-21T03:58:14.121Z,13.50
2023-05-21T04:00:16.085Z,13.50
2023-05-21T04:02:18.034Z,13.40
2023-05-21T04:04:19.956Z,13.40
2023-05-21T04:06:21.915Z,13.40
2023-05-21T04:08:24.253Z,13.40
2023-05-21T04:10:27.058Z,13.40
2023-05-21T04:12:28.769Z,13.40
2023-05-21T04:14:30.769Z,13.40
2023-05-21T04:16:34.781Z,13.40
2023-05-21T04:18:36.790Z,13.40
2023-05-21T04:20:38.624Z,13.40
2023-05-21T04:22:40.722Z,13.40
2023-05-21T04:24:42.669Z,13.50
2023-05-21T04:26:44.663Z,13.50
2023-05-21T04:28:46.518Z,13.50
2023-05-21T04:30:49.932Z,13.50
2023-05-21T04:32:52.826Z,13.50
2023-05-21T04:34:54.826Z,13.50
2023-05-21T04:36:56.972Z,13.50
2023-05-21T04:38:58.864Z,13.60
2023-05-21T04:41:03.879Z,13.60
2023-05-21T04:43:05.875Z,13.60
2023-05-21T04:45:08.881Z,13.60
2023-05-21T04:47:12.331Z,13.60
2023-05-21T04:49:14.379Z,13.60
2023-05-21T04:51:16.265Z,13.70
2023-05-21T04:53:18.145Z,13.70
2023-05-21T04:55:20.038Z,13.80
2023-05-21T04:57:21.952Z,13.80
2023-05-21T04:59:23.759Z,13.80
2023-05-21T05:01:27.135Z,13.90
2023-05-21T05:03:30.153Z,14.00
2023-05-21T05:05:31.936Z,14.00
2023-05-21T05:07:33.761Z,14.00
2023-05-21T05:09:35.897Z,14.10
2023-05-21T05:11:37.689Z,14.20
2023-05-21T05:13:42.502Z,14.20
2023-05-21T05:15:44.373Z,14.30
2023-05-21T05:17:48.386Z,14.30
2023-05-21T05:19:50.701Z,14.30
2023-05-21T05:21:52.623Z,14.40
2023-05-21T05:23:54.481Z,14.50
2023-05-21T05:25:56.383Z,14.50
2023-05-21T05:27:58.204Z,14.60
2023-05-21T05:30:00.005Z,14.60
2023-05-21T05:32:01.767Z,14.70
2023-05-21T05:34:03.632Z,14.70
2023-05-21T05:36:05.572Z,14.80
2023-05-21T05:38:08.978Z,14.90
2023-05-21T05:40:11.070Z,14.90
2023-05-21T05:42:12.917Z,15.00
2023-05-21T05:44:14.775Z,15.00
2023-05-21T05:46:16.706Z,15.10
2023-05-21T05:48:18.657Z,15.20
2023-05-21T05:50:21.102Z,15.20
2023-05-21T05:52:22.913Z,15.30
2023-05-21T05:54:24.713Z,15.30
2023-05-21T05:56:27.051Z,15.40
2023-05-21T05:58:30.973Z,15.50
2023-05-21T06:00:32.947Z,15.50
2023-05-21T06:02:34.921Z,15.60
2023-05-21T06:04:36.865Z,15.70
2023-05-21T06:06:38.964Z,15.70
2023-05-21T06:08:40.876Z,15.80
2023-05-21T06:10:42.882Z,15.90
2023-05-21T06:12:44.690Z,15.90
2023-05-21T06:14:48.984Z,16.00
2023-05-21T06:16:50.969Z,16.10
2023-05-21T06:18:52.879Z,16.20
2023-05-21T06:20:55.984Z,16.30
2023-05-21T06:22:57.779Z,16.40
2023-05-21T06:24:59.636Z,16.40
2023-05-21T06:27:02.117Z,16.50
2023-05-21T06:29:04.257Z,16.60
2023-05-21T06:31:06.148Z,16.70
2023-05-21T06:33:08.124Z,16.70
2023-05-21T06:35:10.186Z,16.80
2023-05-21T06:37:12.093Z,16.90
2023-05-21T06:39:13.976Z,17.00
2023-05-21T06:41:15.875Z,17.00
2023-05-21T06:43:17.719Z,17.20
2023-05-21T06:45:20.607Z,17.10
2023-05-21T06:47:22.685Z,17.20
2023-05-21T06:49:24.741Z,17.30
2023-05-21T06:51:26.653Z,17.30
2023-05-21T06:53:28.456Z,17.40
2023-05-21T06:55:30.296Z,17.50
2023-05-21T06:57:32.132Z,17.50
2023-05-21T06:59:34.080Z,17.50
2023-05-21T07:01:35.963Z,17.60
2023-05-21T07:03:37.948Z,17.60
2023-05-21T07:05:40.165Z,17.70
2023-05-21T07:07:42.190Z,17.70
2023-05-21T07:09:44.043Z,17.70
2023-05-21T07:11:45.850Z,17.80
2023-05-21T07:13:47.738Z,17.80
2023-05-21T07:15:49.546Z,17.90
2023-05-21T07:17:51.449Z,17.90
2023-05-21T07:19:53.289Z,18.00
2023-05-21T07:21:56.600Z,18.00
2023-05-21T07:23:58.699Z,18.00
2023-05-21T07:26:00.707Z,18.10
2023-05-21T07:28:03.264Z,18.10
2023-05-21T07:30:07.109Z,18.10
2023-05-21T07:32:08.973Z,18.10
2023-05-21T07:34:10.855Z,18.20
2023-05-21T07:36:12.751Z,18.20
2023-05-21T07:38:14.730Z,18.20
2023-05-21T07:40:16.667Z,18.20
2023-05-21T07:42:18.408Z,18.30
2023-05-21T07:44:20.239Z,18.30
2023-05-21T07:46:22.112Z,18.30
2023-05-21T07:48:23.998Z,18.30
2023-05-21T07:50:25.939Z,18.30
2023-05-21T07:52:27.944Z,18.40
2023-05-21T07:54:29.779Z,18.40
2023-05-21T07:56:32.456Z,18.50
2023-05-21T07:58:35.272Z,18.50
2023-05-21T08:00:44.952Z,18.50
2023-05-21T08:02:46.896Z,18.60
2023-05-21T08:04:48.957Z,18.70
2023-05-21T08:06:51.449Z,18.70
2023-05-21T08:08:54.484Z,18.70
2023-05-21T08:10:56.345Z,18.70
2023-05-21T08:12:58.276Z,18.80
2023-05-21T08:15:00.535Z,18.80
2023-05-21T08:17:02.557Z,18.80
2023-05-21T08:19:04.622Z,18.90
2023-05-21T08:21:06.524Z,18.90
2023-05-21T08:23:08.458Z,19.00
2023-05-21T08:25:10.384Z,19.10
2023-05-21T08:27:12.271Z,19.10
2023-05-21T08:29:14.087Z,19.20
2023-05-21T08:31:19.203Z,19.20
2023-05-21T08:33:21.624Z,19.30
2023-05-21T08:35:23.494Z,19.40
2023-05-21T08:37:25.450Z,19.50
2023-05-21T08:39:27.232Z,19.60
2023-05-21T08:41:33.262Z,19.60
2023-05-21T08:43:37.765Z,19.70
2023-05-21T08:45:44.637Z,19.80
2023-05-21T08:47:49.589Z,19.90
2023-05-21T08:49:52.223Z,20.00
2023-05-21T08:51:55.285Z,20.10
2023-05-21T08:53:58.369Z,20.20
2023-05-21T08:56:01.635Z,20.20
2023-05-21T08:58:04.936Z,20.40
2023-05-21T09:00:07.492Z,20.40
2023-05-21T09:02:12.620Z,20.50
2023-05-21T09:04:21.183Z,20.60
2023-05-21T09:06:26.062Z,20.70
2023-05-21T09:08:31.321Z,20.80
2023-05-21T09:10:38.735Z,20.90
2023-05-21T09:12:40.873Z,21.00
2023-05-21T09:14:43.772Z,21.10
2023-05-21T09:16:48.709Z,21.20
2023-05-21T09:18:51.048Z,21.40
2023-05-21T09:20:54.036Z,21.60
2023-05-21T09:22:56.042Z,21.80
2023-05-21T09:24:57.893Z,22.00
2023-05-21T09:26:59.816Z,22.20
2023-05-21T09:29:01.655Z,22.40
2023-05-21T09:31:03.893Z,22.60
2023-05-21T09:33:05.768Z,22.80
2023-05-21T09:35:09.994Z,22.90
2023-05-21T09:37:23.854Z,23.00
2023-05-21T09:39:31.973Z,23.20
2023-05-21T09:41:36.045Z,23.30
2023-05-21T09:43:38.209Z,23.50
2023-05-21T09:45:54.578Z,23.60
2023-05-21T09:47:56.821Z,23.70
2023-05-21T09:49:59.099Z,23.90
2023-05-21T09:52:00.952Z,23.90
2023-05-21T09:54:03.646Z,24.00
2023-05-21T09:56:05.360Z,24.10
2023-05-21T09:58:07.696Z,24.10
2023-05-21T10:00:17.661Z,24.10
2023-05-21T10:02:24.001Z,24.10
2023-05-21T10:04:26.216Z,24.20
2023-05-21T10:06:30.142Z,24.20
2023-05-21T10:08:41.131Z,24.20
2023-05-21T10:10:44.331Z,24.20
2023-05-21T10:12:55.186Z,24.30
2023-05-21T10:15:09.715Z,24.30
2023-05-21T10:17:12.755Z,24.40
2023-05-21T10:19:15.930Z,24.40
2023-05-21T10:21:18.397Z,24.40
2023-05-21T10:23:20.972Z,24.50
2023-05-21T10:25:23.063Z,24.50
2023-05-21T10:27:25.041Z,24.50
2023-05-21T10:29:27.261Z,24.50
2023-05-21T10:31:29.852Z,24.60
2023-05-21T10:33:31.860Z,24.60
2023-05-21T10:35:34.424Z,24.70
2023-05-21T10:37:36.679Z,24.70
2023-05-21T10:39:39.283Z,24.70
2023-05-21T10:41:56.388Z,24.80
2023-05-21T10:44:27.623Z,24.80
2023-05-21T10:46:53.501Z,24.90
2023-05-21T10:49:16.622Z,24.90
2023-05-21T10:51:46.226Z,25.00
2023-05-21T10:54:26.469Z,25.00
2023-05-21T10:56:46.577Z,25.10
2023-05-21T10:59:22.135Z,25.10
2023-05-21T11:01:28.855Z,25.20
2023-05-21T11:03:34.343Z,25.30
2023-05-21T11:05:57.415Z,25.40
2023-05-21T11:08:01.529Z,25.60
2023-05-21T11:10:37.571Z,25.70
2023-05-21T11:13:15.390Z,25.80
2023-05-21T11:15:17.224Z,25.90
2023-05-21T11:17:40.162Z,25.80
2023-05-21T11:19:51.514Z,26.00
2023-05-21T11:21:55.660Z,26.00
2023-05-21T11:24:02.379Z,26.00
2023-05-21T11:26:07.108Z,26.00
2023-05-21T11:28:09.615Z,26.10
2023-05-21T11:30:17.997Z,26.30
2023-05-21T11:32:20.608Z,26.30
2023-05-21T11:34:28.676Z,26.40
2023-05-21T11:36:30.679Z,26.40
2023-05-21T11:38:33.893Z,26.50
2023-05-21T11:40:36.226Z,26.60
2023-05-21T11:42:42.539Z,26.70
2023-05-21T11:44:48.575Z,26.80
2023-05-21T11:46:52.434Z,26.90
2023-05-21T11:48:55.482Z,26.90
2023-05-21T11:50:58.032Z,27.00
2023-05-21T11:53:00.075Z,27.00
2023-05-21T11:55:01.964Z,27.00
2023-05-21T11:57:09.918Z,27.00
2023-05-21T11:59:18.522Z,27.00
2023-05-21T12:01:26.632Z,27.10
2023-05-21T12:03:30.573Z,27.20
2023-05-21T12:05:45.031Z,27.20
2023-05-21T12:07:51.052Z,27.30
2023-05-21T12:09:53.178Z,27.30
2023-05-21T12:11:55.141Z,27.30
2023-05-21T12:13:57.419Z,27.30
2023-05-21T12:15:59.329Z,27.40
2023-05-21T12:18:01.316Z,27.40
2023-05-21T12:20:08.321Z,27.50
2023-05-21T12:22:10.198Z,27.50
2023-05-21T12:24:12.102Z,27.50
2023-05-21T12:26:14.370Z,27.60
2023-05-21T12:28:16.426Z,27.70
2023-05-21T12:30:18.487Z,27.70
2023-05-21T12:32:21.566Z,27.80
2023-05-21T12:34:44.710Z,27.80
2023-05-21T12:36:48.343Z,27.90
2023-05-21T12:38:50.556Z,27.90
2023-05-21T12:40:52.523Z,27.90
2023-05-21T12:42:54.316Z,27.90
2023-05-21T12:44:57.019Z,28.00
2023-05-21T12:46:59.693Z,28.00
2023-05-21T12:49:01.456Z,28.10
2023-05-21T12:51:03.354Z,28.10
2023-05-21T12:53:08.724Z,28.10
2023-05-21T12:55:13.798Z,28.20
2023-05-21T12:57:17.448Z,28.30
2023-05-21T12:59:19.288Z,28.40
2023-05-21T13:01:21.966Z,28.40
2023-05-21T13:03:24.133Z,28.40
2023-05-21T13:05:26.127Z,28.50
2023-05-21T13:07:29.558Z,28.60
2023-05-21T13:09:31.396Z,28.60
2023-05-21T13:11:33.227Z,28.60
2023-05-21T13:13:35.065Z,28.60
2023-05-21T13:15:36.911Z,28.70
2023-05-21T13:17:38.904Z,28.70
2023-05-21T13:19:40.747Z,28.70
2023-05-21T13:21:42.532Z,28.80
2023-05-21T13:23:44.352Z,28.90
2023-05-21T13:25:46.142Z,29.00
2023-05-21T13:27:49.305Z,29.10
2023-05-21T13:29:51.089Z,29.10
2023-05-21T13:31:52.849Z,29.20
2023-05-21T13:33:54.701Z,29.20
2023-05-21T13:35:56.665Z,29.20
2023-05-21T13:37:58.444Z,29.10
2023-05-21T13:40:00.944Z,29.10
2023-05-21T13:42:02.834Z,29.00
2023-05-21T13:44:04.838Z,29.00
2023-05-21T13:46:06.667Z,28.90
2023-05-21T13:48:08.455Z,28.80
2023-05-21T13:50:10.702Z,28.80
2023-05-21T13:52:12.607Z,28.70
2023-05-21T13:54:15.690Z,28.70
2023-05-21T13:56:17.669Z,28.80
2023-05-21T13:58:19.496Z,28.80
2023-05-21T14:00:21.393Z,28.80
2023-05-21T14:02:23.522Z,28.70
2023-05-21T14:04:25.768Z,28.70
2023-05-21T14:06:27.611Z,28.70
2023-05-21T14:08:29.552Z,28.70
2023-05-21T14:10:31.361Z,28.70
2023-05-21T14:12:33.451Z,28.60
2023-05-21T14:14:36.167Z,28.60
2023-05-21T14:16:38.026Z,28.60
2023-05-21T14:18:39.841Z,28.60
2023-05-21T14:20:41.690Z,28.70
2023-05-21T14:22:43.555Z,28.80
2023-05-21T14:24:46.133Z,28.90
2023-05-21T14:26:47.830Z,29.10
2023-05-21T14:28:49.776Z,29.30
2023-05-21T14:30:51.611Z,29.40
2023-05-21T14:32:54.000Z,29.70
2023-05-21T14:34:56.933Z,29.80
2023-05-21T14:36:58.778Z,30.00
2023-05-21T14:39:00.800Z,30.20
2023-05-21T14:41:02.723Z,30.30
2023-05-21T14:43:05.750Z,30.40
2023-05-21T14:45:18.558Z,30.30
2023-05-21T14:47:21.318Z,30.40
2023-05-21T14:49:23.361Z,30.40
2023-05-21T14:51:25.509Z,30.50
2023-05-21T14:53:27.368Z,30.40
2023-05-21T14:55:29.715Z,30.40
2023-05-21T14:57:31.665Z,30.40
2023-05-21T14:59:33.591Z,30.30
2023-05-21T15:01:35.857Z,30.30
2023-05-21T15:03:37.872Z,30.40
2023-05-21T15:05:39.834Z,30.30
2023-05-21T15:07:41.748Z,30.20
2023-05-21T15:09:43.524Z,30.10
2023-05-21T15:11:46.109Z,30.10
2023-05-21T15:13:47.980Z,30.30
2023-05-21T15:15:50.070Z,30.40
2023-05-21T15:17:51.974Z,30.70
2023-05-21T15:19:53.860Z,31.00
2023-05-21T15:21:55.708Z,31.10
2023-05-21T15:23:57.535Z,31.20
2023-05-21T15:25:59.346Z,31.20
2023-05-21T15:28:01.237Z,31.20
2023-05-21T15:30:04.464Z,31.20
2023-05-21T15:32:06.551Z,31.20
2023-05-21T15:34:08.509Z,31.20
2023-05-21T15:36:10.401Z,31.30
2023-05-21T15:38:12.318Z,31.40
2023-05-21T15:40:14.241Z,31.40
2023-05-21T15:42:16.139Z,31.40
2023-05-21T15:44:17.953Z,31.50
2023-05-21T15:46:19.817Z,31.60
2023-05-21T15:48:22.938Z,31.60
2023-05-21T15:50:24.883Z,31.70
2023-05-21T15:52:26.749Z,31.60
2023-05-21T15:54:28.557Z,31.60
2023-05-21T15:56:30.887Z,31.60
2023-05-21T15:58:32.814Z,31.60
2023-05-21T16:00:34.957Z,31.60
2023-05-21T16:02:37.063Z,31.40
2023-05-21T16:04:38.939Z,31.40
2023-05-21T16:06:40.882Z,31.40
2023-05-21T16:08:42.684Z,31.40
2023-05-21T16:10:45.939Z,31.40
2023-05-21T16:12:47.820Z,31.40
2023-05-21T16:14:52.359Z,31.30
2023-05-21T16:16:54.303Z,31.10
2023-05-21T16:18:56.180Z,31.00
2023-05-21T16:20:58.156Z,30.90
2023-05-21T16:22:59.974Z,30.80
2023-05-21T16:25:01.856Z,30.60
2023-05-21T16:27:03.784Z,30.50
2023-05-21T16:29:05.771Z,30.40
2023-05-21T16:31:08.573Z,30.40
2023-05-21T16:33:12.345Z,30.20
2023-05-21T16:35:14.119Z,30.10
2023-05-21T16:37:15.967Z,30.00
2023-05-21T16:39:17.755Z,29.90
2023-05-21T16:41:19.827Z,29.80
2023-05-21T16:43:21.614Z,29.70
2023-05-21T16:45:23.568Z,29.70
2023-05-21T16:47:25.426Z,29.60
2023-05-21T16:49:27.715Z,29.50
2023-05-21T16:51:29.615Z,29.40
2023-05-21T16:53:31.656Z,29.40
2023-05-21T16:55:35.127Z,29.30
2023-05-21T16:57:37.433Z,29.20
2023-05-21T16:59:39.232Z,29.20
2023-05-21T17:01:41.094Z,29.20
2023-05-21T17:03:43.574Z,29.20
2023-05-21T17:05:45.438Z,29.20
2023-05-21T17:07:47.673Z,29.10
2023-05-21T17:09:49.473Z,29.00
2023-05-21T17:11:51.362Z,29.10
2023-05-21T17:13:53.177Z,29.10
2023-05-21T17:15:55.162Z,29.10
2023-05-21T17:17:57.002Z,29.00
2023-05-21T17:19:59.785Z,29.00
2023-05-21T17:22:01.614Z,29.00
2023-05-21T17:24:03.658Z,28.90
2023-05-21T17:26:07.085Z,28.90
2023-05-21T17:28:08.917Z,28.80
2023-05-21T17:30:11.249Z,28.70
2023-05-21T17:32:13.308Z,28.50
2023-05-21T17:34:15.196Z,28.40
2023-05-21T17:36:17.055Z,28.20
2023-05-21T17:38:19.000Z,28.10
2023-05-21T17:40:23.693Z,27.90
2023-05-21T17:42:25.553Z,27.70
2023-05-21T17:44:27.358Z,27.50
2023-05-21T17:46:29.213Z,27.30
2023-05-21T17:48:31.036Z,27.20
2023-05-21T17:50:34.306Z,27.00
2023-05-21T17:52:36.164Z,26.90
2023-05-21T17:54:38.101Z,26.80
2023-05-21T17:56:39.992Z,26.70
2023-05-21T17:58:41.845Z,26.50
2023-05-21T18:00:43.689Z,26.40
2023-05-21T18:02:45.644Z,26.20
2023-05-21T18:04:47.508Z,26.20
2023-05-21T18:06:49.387Z,26.00
2023-05-21T18:08:51.224Z,25.80
2023-05-21T18:10:53.059Z,25.70
2023-05-21T18:12:54.949Z,25.60
2023-05-21T18:14:56.973Z,25.50
2023-05-21T18:16:58.939Z,25.40
2023-05-21T18:19:05.689Z,25.30
2023-05-21T18:21:07.695Z,25.20
2023-05-21T18:23:11.465Z,25.00
2023-05-21T18:25:13.345Z,24.90
2023-05-21T18:27:15.933Z,24.80
2023-05-21T18:29:17.845Z,24.60
2023-05-21T18:31:20.261Z,24.50
2023-05-21T18:33:22.113Z,24.40
2023-05-21T18:35:23.897Z,24.20
2023-05-21T18:37:27.267Z,24.20
2023-05-21T18:39:29.131Z,24.10
2023-05-21T18:41:31.166Z,23.90
2023-05-21T18:43:33.014Z,23.80
2023-05-21T18:45:34.808Z,23.70
2023-05-21T18:47:36.817Z,23.70
2023-05-21T18:49:39.200Z,23.60
2023-05-21T18:51:41.237Z,23.50
2023-05-21T18:53:43.097Z,23.40
2023-05-21T18:55:45.066Z,23.20
2023-05-21T18:57:46.886Z,23.20
2023-05-21T18:59:48.666Z,23.10
2023-05-21T19:01:50.581Z,23.00
2023-05-21T19:03:52.410Z,22.90
2023-05-21T19:05:54.703Z,22.80
2023-05-21T19:07:59.187Z,22.80
2023-05-21T19:10:01.228Z,22.70
2023-05-21T19:12:03.211Z,22.60
2023-05-21T19:14:05.390Z,22.50
2023-05-21T19:16:10.922Z,22.40
2023-05-21T19:18:14.288Z,22.30
2023-05-21T19:20:24.122Z,22.30
2023-05-21T19:22:27.345Z,22.20
2023-05-21T19:24:29.129Z,22.20
2023-05-21T19:26:30.920Z,22.10
2023-05-21T19:28:32.899Z,22.00
2023-05-21T19:30:36.526Z,22.00
2023-05-21T19:32:38.593Z,21.90
2023-05-21T19:34:40.507Z,21.90
2023-05-21T19:36:53.023Z,21.80
2023-05-21T19:38:55.814Z,21.80
2023-05-21T19:40:57.648Z,21.70
2023-05-21T19:42:59.428Z,21.60
2023-05-21T19:45:01.256Z,21.60
